createdAt,value
2019-05-18T00:01:38.666Z,30.10
2019-05-18T00:04:07.869Z,29.00
2019-05-18T00:06:37.660Z,30.08
2019-05-18T00:09:08.012Z,27.67
2019-05-18T00:11:37.111Z,31.60
2019-05-18T00:14:06.303Z,31.82
2019-05-18T00:16:35.503Z,30.82
2019-05-18T00:19:04.813Z,29.60
2019-05-18T00:21:33.639Z,33.02
2019-05-18T00:24:02.811Z,31.45
2019-05-18T00:26:32.004Z,30.17
2019-05-18T00:29:00.856Z,31.62
2019-05-18T00:31:32.964Z,32.00
2019-05-18T00:34:02.178Z,32.78
2019-05-18T00:36:31.352Z,29.80
2019-05-18T00:39:00.568Z,31.30
2019-05-18T00:41:29.749Z,32.88
2019-05-18T00:43:58.953Z,31.70
2019-05-18T00:46:28.283Z,29.65
2019-05-18T00:48:57.075Z,30.27
2019-05-18T00:51:26.340Z,34.78
2019-05-18T00:53:56.079Z,33.18
2019-05-18T00:56:25.369Z,33.95
2019-05-18T00:58:54.591Z,31.65
2019-05-18T01:01:23.765Z,32.78
2019-05-18T01:03:53.080Z,30.20
2019-05-18T01:06:22.827Z,40.15
2019-05-18T01:08:51.963Z,32.58
2019-05-18T01:11:21.076Z,32.85
2019-05-18T01:13:49.907Z,32.60
2019-05-18T01:16:19.068Z,32.70
2019-05-18T01:18:48.255Z,31.27
2019-05-18T01:21:17.063Z,34.58
2019-05-18T01:23:46.240Z,33.78
2019-05-18T01:26:15.457Z,34.20
2019-05-18T01:28:44.654Z,36.00
2019-05-18T01:31:13.839Z,39.20
2019-05-18T01:33:43.047Z,35.30
2019-05-18T01:36:13.675Z,37.53
2019-05-18T01:38:42.887Z,37.50
2019-05-18T01:41:11.980Z,34.27
2019-05-18T01:43:41.290Z,33.67
2019-05-18T01:46:11.911Z,34.25
2019-05-18T01:48:41.016Z,37.80
2019-05-18T01:51:10.216Z,34.23
2019-05-18T01:53:39.420Z,32.65
2019-05-18T01:56:08.603Z,32.33
2019-05-18T01:58:37.696Z,30.20
2019-05-18T02:01:07.100Z,35.03
2019-05-18T02:03:36.317Z,35.60
2019-05-18T02:06:05.212Z,31.55
2019-05-18T02:08:34.408Z,32.48
2019-05-18T02:11:03.602Z,34.40
2019-05-18T02:13:32.798Z,32.67
2019-05-18T02:16:01.796Z,34.15
2019-05-18T02:18:31.091Z,34.98
2019-05-18T02:21:00.232Z,35.38
2019-05-18T02:23:29.398Z,33.98
2019-05-18T02:25:58.668Z,35.60
2019-05-18T02:28:27.893Z,38.33
2019-05-18T02:30:57.014Z,38.78
2019-05-18T02:33:26.221Z,40.73
2019-05-18T02:35:55.410Z,38.65
2019-05-18T02:38:24.592Z,40.20
2019-05-18T02:40:53.813Z,36.73
2019-05-18T02:43:22.885Z,39.25
2019-05-18T02:45:52.100Z,39.78
2019-05-18T02:48:21.188Z,38.75
2019-05-18T02:50:50.485Z,37.33
2019-05-18T02:53:19.685Z,36.42
2019-05-18T02:55:48.884Z,37.53
2019-05-18T02:58:18.086Z,39.13
2019-05-18T03:00:47.512Z,39.05
2019-05-18T03:03:16.727Z,38.38
2019-05-18T03:05:45.947Z,37.28
2019-05-18T03:08:15.819Z,40.70
2019-05-18T03:10:45.228Z,38.60
2019-05-18T03:13:16.017Z,39.70
2019-05-18T03:15:45.243Z,43.73
2019-05-18T03:18:13.994Z,39.95
2019-05-18T03:20:43.160Z,41.45
2019-05-18T03:23:14.368Z,40.85
2019-05-18T03:25:43.997Z,38.63
2019-05-18T03:28:12.920Z,37.50
2019-05-18T03:30:41.694Z,41.30
2019-05-18T03:33:11.090Z,38.17
2019-05-18T03:35:40.805Z,40.73
2019-05-18T03:38:09.995Z,37.08
2019-05-18T03:40:39.201Z,39.50
2019-05-18T03:43:08.287Z,37.73
2019-05-18T03:45:37.489Z,43.25
2019-05-18T03:48:06.683Z,39.25
2019-05-18T03:50:36.508Z,39.63
2019-05-18T03:53:05.349Z,39.90
2019-05-18T03:55:34.481Z,38.08
2019-05-18T03:58:03.687Z,40.20
2019-05-18T04:00:32.893Z,41.08
2019-05-18T04:03:02.092Z,42.38
2019-05-18T04:05:31.549Z,42.88
2019-05-18T04:08:02.978Z,43.40
2019-05-18T04:10:32.248Z,43.80
2019-05-18T04:13:02.093Z,41.02
2019-05-18T04:15:31.266Z,38.90
2019-05-18T04:18:00.565Z,39.35
2019-05-18T04:20:29.759Z,43.40
2019-05-18T04:22:58.956Z,40.52
2019-05-18T04:25:28.106Z,41.37
2019-05-18T04:27:57.358Z,38.78
2019-05-18T04:30:26.494Z,41.45
2019-05-18T04:32:55.758Z,41.68
2019-05-18T04:35:24.969Z,40.28
2019-05-18T04:37:54.169Z,41.98
2019-05-18T04:40:23.035Z,47.48
2019-05-18T04:42:52.141Z,43.70
2019-05-18T04:45:22.066Z,38.78
2019-05-18T04:47:51.159Z,41.88
2019-05-18T04:50:20.504Z,36.33
2019-05-18T04:52:49.777Z,35.48
2019-05-18T04:55:18.884Z,36.65
2019-05-18T04:57:49.502Z,36.17
2019-05-18T05:00:18.804Z,37.78
2019-05-18T05:02:48.002Z,34.78
2019-05-18T05:05:17.770Z,34.48
2019-05-18T05:07:46.916Z,34.15
2019-05-18T05:10:15.675Z,35.10
2019-05-18T05:12:44.792Z,34.67
2019-05-18T05:15:14.121Z,34.73
2019-05-18T05:17:45.670Z,36.77
2019-05-18T05:20:19.874Z,34.13
2019-05-18T05:22:45.605Z,35.03
2019-05-18T05:25:14.785Z,35.28
2019-05-18T05:27:43.885Z,33.80
2019-05-18T05:30:15.074Z,34.27
2019-05-18T05:32:45.671Z,33.15
2019-05-18T05:35:16.405Z,33.85
2019-05-18T05:37:45.701Z,33.85
2019-05-18T05:40:15.011Z,33.58
2019-05-18T05:42:44.303Z,32.90
2019-05-18T05:45:13.918Z,34.33
2019-05-18T05:47:43.011Z,35.43
2019-05-18T05:50:12.433Z,33.15
2019-05-18T05:52:41.790Z,34.35
2019-05-18T05:55:11.432Z,33.83
2019-05-18T05:57:40.744Z,35.48
2019-05-18T06:00:12.681Z,34.15
2019-05-18T06:02:41.808Z,34.33
2019-05-18T06:05:10.929Z,35.00
2019-05-18T06:07:43.585Z,36.05
2019-05-18T06:10:13.072Z,34.67
2019-05-18T06:12:42.283Z,36.30
2019-05-18T06:15:11.337Z,40.55
2019-05-18T06:17:40.467Z,36.50
2019-05-18T06:20:10.082Z,38.02
2019-05-18T06:22:42.248Z,37.08
2019-05-18T06:25:11.433Z,37.30
2019-05-18T06:27:40.555Z,39.53
2019-05-18T06:30:10.483Z,40.80
2019-05-18T06:32:39.763Z,38.48
2019-05-18T06:35:08.589Z,40.43
2019-05-18T06:37:37.649Z,40.58
2019-05-18T06:40:10.134Z,39.38
2019-05-18T06:42:39.227Z,41.57
2019-05-18T06:45:08.917Z,40.23
2019-05-18T06:47:38.160Z,38.02
2019-05-18T06:50:11.858Z,39.50
2019-05-18T06:52:39.449Z,39.67
2019-05-18T06:55:10.997Z,39.60
2019-05-18T06:57:40.662Z,37.33
2019-05-18T07:00:12.848Z,37.05
2019-05-18T07:02:42.818Z,39.60
2019-05-18T07:05:12.171Z,40.60
2019-05-18T07:07:41.278Z,39.85
2019-05-18T07:10:10.418Z,48.28
2019-05-18T07:12:39.656Z,39.55
2019-05-18T07:15:09.540Z,40.38
2019-05-18T07:17:42.561Z,40.73
2019-05-18T07:20:17.010Z,40.00
2019-05-18T07:22:50.319Z,39.50
2019-05-18T07:25:22.514Z,40.88
2019-05-18T07:27:52.742Z,38.90
2019-05-18T07:30:23.004Z,41.02
2019-05-18T07:32:52.883Z,42.00
2019-05-18T07:35:24.081Z,41.28
2019-05-18T07:37:54.440Z,40.50
2019-05-18T07:40:25.337Z,43.00
2019-05-18T07:42:55.103Z,44.15
2019-05-18T07:45:25.853Z,48.85
2019-05-18T07:47:57.500Z,45.65
2019-05-18T07:50:29.657Z,41.58
2019-05-18T07:53:02.774Z,43.38
2019-05-18T07:55:32.103Z,41.02
2019-05-18T07:58:02.340Z,42.20
2019-05-18T08:00:35.331Z,45.85
2019-05-18T08:03:04.105Z,46.10
2019-05-18T08:05:33.304Z,45.95
2019-05-18T08:08:02.477Z,48.65
2019-05-18T08:10:38.968Z,48.58
2019-05-18T08:13:08.211Z,49.58
2019-05-18T08:15:37.888Z,51.23
2019-05-18T08:18:08.941Z,50.40
2019-05-18T08:20:38.124Z,54.93
2019-05-18T08:23:07.221Z,55.83
2019-05-18T08:25:36.334Z,49.20
2019-05-18T08:28:05.622Z,52.75
2019-05-18T08:30:34.724Z,52.33
2019-05-18T08:33:03.911Z,53.42
2019-05-18T08:35:33.012Z,53.13
2019-05-18T08:38:04.195Z,52.93
2019-05-18T08:40:33.056Z,51.13
2019-05-18T08:43:02.254Z,53.05
2019-05-18T08:45:31.088Z,51.88
2019-05-18T08:48:00.241Z,53.65
2019-05-18T08:50:29.443Z,50.10
2019-05-18T08:52:58.194Z,50.88
2019-05-18T08:55:27.441Z,50.50
2019-05-18T08:57:56.568Z,50.65
2019-05-18T09:00:26.414Z,48.87
2019-05-18T09:02:56.433Z,47.75
2019-05-18T09:05:28.332Z,46.10
2019-05-18T09:07:57.528Z,43.30
2019-05-18T09:10:26.729Z,43.13
2019-05-18T09:12:55.917Z,44.85
2019-05-18T09:15:24.689Z,44.42
2019-05-18T09:17:53.810Z,43.58
2019-05-18T09:20:23.022Z,43.83
2019-05-18T09:22:52.633Z,44.48
2019-05-18T09:25:21.836Z,44.42
2019-05-18T09:27:50.921Z,44.33
2019-05-18T09:30:20.325Z,44.55
2019-05-18T09:32:49.082Z,43.60
2019-05-18T09:35:18.517Z,41.88
2019-05-18T09:37:47.815Z,42.55
2019-05-18T09:40:17.426Z,44.50
2019-05-18T09:42:46.632Z,40.00
2019-05-18T09:45:17.459Z,42.38
2019-05-18T09:47:46.768Z,46.77
2019-05-18T09:50:16.205Z,44.85
2019-05-18T09:52:46.329Z,42.23
2019-05-18T09:55:17.028Z,40.43
2019-05-18T09:57:46.250Z,42.43
2019-05-18T10:00:15.525Z,37.13
2019-05-18T10:02:44.627Z,40.38
2019-05-18T10:05:13.449Z,37.60
2019-05-18T10:07:42.214Z,40.98
2019-05-18T10:10:12.234Z,38.17
2019-05-18T10:12:41.320Z,35.90
2019-05-18T10:15:10.800Z,37.20
2019-05-18T10:17:39.617Z,33.78
2019-05-18T10:20:09.432Z,33.65
2019-05-18T10:22:53.294Z,32.05
2019-05-18T10:25:09.898Z,34.88
2019-05-18T10:27:39.076Z,36.53
2019-05-18T10:30:11.326Z,37.20
2019-05-18T10:32:40.122Z,36.25
2019-05-18T10:35:09.080Z,35.45
2019-05-18T10:37:38.239Z,34.65
2019-05-18T10:40:09.216Z,35.00
2019-05-18T10:42:38.377Z,34.73
2019-05-18T10:45:08.464Z,33.35
2019-05-18T10:47:38.201Z,32.30
2019-05-18T10:50:08.707Z,35.45
2019-05-18T10:52:37.960Z,30.80
2019-05-18T10:55:08.129Z,30.70
2019-05-18T10:57:36.978Z,29.32
2019-05-18T11:00:08.031Z,31.48
2019-05-18T11:02:37.123Z,30.17
2019-05-18T11:05:08.576Z,25.62
2019-05-18T11:07:37.347Z,26.10
2019-05-18T11:10:08.482Z,24.27
2019-05-18T11:12:37.574Z,25.62
2019-05-18T11:15:08.249Z,27.00
2019-05-18T11:17:37.511Z,25.95
2019-05-18T11:20:08.580Z,24.07
2019-05-18T11:22:38.033Z,26.48
2019-05-18T11:25:08.281Z,27.60
2019-05-18T11:27:37.485Z,24.30
2019-05-18T11:30:09.285Z,22.00
2019-05-18T11:32:38.786Z,25.27
2019-05-18T11:35:08.632Z,21.40
2019-05-18T11:37:37.529Z,22.67
2019-05-18T11:40:08.259Z,22.70
2019-05-18T11:42:37.265Z,25.17
2019-05-18T11:45:11.243Z,24.30
2019-05-18T11:47:40.513Z,22.17
2019-05-18T11:50:09.989Z,22.52
2019-05-18T11:52:38.883Z,23.70
2019-05-18T11:55:08.415Z,23.77
2019-05-18T11:57:37.604Z,22.62
2019-05-18T12:00:08.647Z,22.75
2019-05-18T12:02:37.488Z,27.22
2019-05-18T12:05:08.195Z,20.50
2019-05-18T12:07:37.386Z,22.05
2019-05-18T12:10:09.351Z,22.35
2019-05-18T12:12:38.615Z,26.10
2019-05-18T12:15:09.785Z,22.42
2019-05-18T12:17:38.918Z,20.00
2019-05-18T12:20:08.927Z,22.82
2019-05-18T12:22:38.006Z,20.60
2019-05-18T12:25:07.884Z,19.70
2019-05-18T12:27:37.076Z,18.48
2019-05-18T12:30:08.982Z,19.60
2019-05-18T12:32:38.197Z,18.17
2019-05-18T12:35:09.341Z,17.50
2019-05-18T12:37:38.176Z,16.48
2019-05-18T12:40:08.304Z,17.62
2019-05-18T12:42:37.226Z,17.62
2019-05-18T12:45:09.106Z,16.12
2019-05-18T12:47:38.192Z,13.93
2019-05-18T12:50:08.513Z,15.13
2019-05-18T12:52:37.389Z,15.13
2019-05-18T12:55:06.845Z,14.55
2019-05-18T12:57:37.043Z,12.98
2019-05-18T13:00:09.133Z,14.60
2019-05-18T13:02:38.312Z,14.70
2019-05-18T13:05:08.335Z,12.98
2019-05-18T13:07:37.148Z,14.63
2019-05-18T13:10:09.423Z,14.93
2019-05-18T13:12:38.687Z,15.50
2019-05-18T13:15:12.702Z,14.28
2019-05-18T13:17:41.897Z,14.85
2019-05-18T13:20:12.576Z,16.42
2019-05-18T13:22:41.400Z,17.05
2019-05-18T13:25:12.876Z,13.48
2019-05-18T13:27:41.986Z,12.33
2019-05-18T13:30:13.272Z,12.15
2019-05-18T13:32:42.423Z,13.15
2019-05-18T13:35:13.159Z,10.98
2019-05-18T13:37:42.374Z,13.88
2019-05-18T13:40:13.303Z,11.85
2019-05-18T13:42:42.122Z,10.65
2019-05-18T13:45:11.981Z,12.03
2019-05-18T13:47:41.101Z,14.70
2019-05-18T13:50:12.049Z,14.05
2019-05-18T13:52:41.140Z,10.93
2019-05-18T13:55:10.300Z,12.23
2019-05-18T13:57:39.546Z,13.18
2019-05-18T14:00:09.465Z,14.45
2019-05-18T14:02:38.666Z,13.40
2019-05-18T14:05:08.068Z,11.43
2019-05-18T14:07:38.507Z,13.32
2019-05-18T14:10:08.470Z,16.95
2019-05-18T14:12:37.608Z,13.03
2019-05-18T14:15:06.982Z,10.15
2019-05-18T14:17:36.487Z,11.73
2019-05-18T14:20:06.027Z,12.37
2019-05-18T14:22:34.893Z,16.57
2019-05-18T14:25:18.353Z,13.32
2019-05-18T14:27:36.966Z,12.60
2019-05-18T14:30:07.064Z,13.75
2019-05-18T14:32:36.234Z,12.50
2019-05-18T14:35:07.365Z,21.23
2019-05-18T14:37:36.601Z,13.45
2019-05-18T14:40:09.079Z,13.85
2019-05-18T14:42:38.233Z,14.25
2019-05-18T14:45:09.006Z,16.97
2019-05-18T14:47:38.174Z,13.13
2019-05-18T14:50:08.691Z,17.75
2019-05-18T14:52:37.905Z,13.62
2019-05-18T14:55:07.652Z,12.43
2019-05-18T14:57:36.863Z,12.90
2019-05-18T15:00:10.632Z,15.78
2019-05-18T15:02:40.655Z,24.05
2019-05-18T15:05:10.786Z,21.20
2019-05-18T15:07:40.038Z,20.37
2019-05-18T15:10:09.748Z,24.25
2019-05-18T15:12:38.895Z,24.47
2019-05-18T15:15:09.298Z,16.30
2019-05-18T15:17:38.063Z,14.80
2019-05-18T15:20:09.111Z,17.52
2019-05-18T15:22:38.260Z,21.35
2019-05-18T15:25:07.856Z,20.10
2019-05-18T15:27:37.056Z,22.30
2019-05-18T15:30:09.932Z,21.45
2019-05-18T15:32:39.329Z,20.97
2019-05-18T15:35:10.379Z,20.62
2019-05-18T15:37:43.409Z,23.27
2019-05-18T15:40:10.602Z,23.38
2019-05-18T15:42:39.445Z,18.80
2019-05-18T15:45:09.169Z,18.27
2019-05-18T15:47:38.321Z,15.30
2019-05-18T15:50:08.562Z,17.77
2019-05-18T15:52:37.766Z,19.57
2019-05-18T15:55:08.502Z,20.75
2019-05-18T15:57:37.783Z,22.42
2019-05-18T16:00:10.255Z,21.12
2019-05-18T16:02:39.485Z,19.42
2019-05-18T16:05:09.369Z,18.20
2019-05-18T16:07:38.570Z,19.17
2019-05-18T16:10:08.542Z,20.70
2019-05-18T16:12:37.684Z,23.02
2019-05-18T16:15:08.905Z,20.75
2019-05-18T16:17:39.946Z,21.33
2019-05-18T16:20:10.424Z,21.52
2019-05-18T16:22:39.239Z,24.67
2019-05-18T16:25:09.001Z,23.75
2019-05-18T16:27:37.863Z,22.80
2019-05-18T16:30:08.296Z,16.65
2019-05-18T16:32:37.634Z,28.23
2019-05-18T16:35:10.314Z,22.93
2019-05-18T16:37:39.068Z,22.05
2019-05-18T16:40:08.619Z,23.42
2019-05-18T16:42:37.367Z,22.00
2019-05-18T16:45:08.099Z,21.33
2019-05-18T16:47:37.239Z,22.45
2019-05-18T16:50:07.876Z,22.13
2019-05-18T16:52:36.739Z,19.48
2019-05-18T16:55:09.339Z,21.20
2019-05-18T16:57:38.533Z,23.90
2019-05-18T17:00:16.202Z,22.80
2019-05-18T17:02:45.534Z,23.70
2019-05-18T17:05:15.658Z,23.15
2019-05-18T17:07:44.776Z,29.92
2019-05-18T17:10:15.593Z,26.30
2019-05-18T17:12:44.701Z,23.57
2019-05-18T17:15:13.819Z,24.98
2019-05-18T17:17:42.996Z,22.82
2019-05-18T17:20:13.628Z,22.32
2019-05-18T17:22:42.857Z,22.73
2019-05-18T17:25:12.237Z,18.00
2019-05-18T17:27:41.435Z,18.10
2019-05-18T17:30:10.838Z,18.32
2019-05-18T17:32:39.920Z,18.65
2019-05-18T17:35:10.163Z,19.42
2019-05-18T17:37:38.997Z,21.30
2019-05-18T17:40:08.560Z,19.30
2019-05-18T17:42:37.448Z,19.70
2019-05-18T17:45:08.288Z,23.38
2019-05-18T17:47:37.389Z,20.37
2019-05-18T17:50:10.063Z,20.20
2019-05-18T17:52:38.847Z,21.60
2019-05-18T17:55:08.913Z,24.27
2019-05-18T17:57:38.087Z,24.55
2019-05-18T18:00:11.982Z,25.57
2019-05-18T18:02:41.484Z,29.10
2019-05-18T18:05:10.719Z,30.82
2019-05-18T18:07:39.886Z,28.70
2019-05-18T18:10:09.233Z,41.10
2019-05-18T18:12:38.516Z,30.90
2019-05-18T18:15:08.430Z,31.80
2019-05-18T18:17:37.607Z,33.53
2019-05-18T18:20:07.321Z,39.40
2019-05-18T18:22:40.638Z,83.30
2019-05-18T18:25:10.559Z,39.98
2019-05-18T18:27:39.358Z,38.20
2019-05-18T18:30:13.292Z,37.20
2019-05-18T18:32:42.102Z,34.85
2019-05-18T18:35:11.905Z,37.90
2019-05-18T18:37:41.148Z,38.45
2019-05-18T18:40:10.645Z,37.03
2019-05-18T18:42:39.472Z,45.78
2019-05-18T18:45:09.056Z,44.95
2019-05-18T18:47:38.135Z,42.75
2019-05-18T18:50:08.060Z,49.50
2019-05-18T18:52:37.191Z,41.88
2019-05-18T18:55:08.092Z,47.88
2019-05-18T18:57:41.367Z,48.87
2019-05-18T19:00:09.052Z,57.27
2019-05-18T19:02:38.178Z,59.45
2019-05-18T19:05:07.851Z,61.25
2019-05-18T19:07:36.643Z,71.35
2019-05-18T19:10:13.532Z,66.07
2019-05-18T19:12:42.842Z,56.98
2019-05-18T19:15:12.756Z,58.40
2019-05-18T19:17:41.692Z,61.15
2019-05-18T19:20:10.949Z,59.67
2019-05-18T19:22:40.667Z,61.65
2019-05-18T19:25:10.167Z,64.60
2019-05-18T19:27:39.328Z,61.08
2019-05-18T19:30:10.212Z,62.73
2019-05-18T19:32:39.521Z,64.97
2019-05-18T19:35:09.129Z,66.37
2019-05-18T19:37:38.062Z,64.12
2019-05-18T19:40:08.130Z,64.25
2019-05-18T19:42:37.419Z,64.05
2019-05-18T19:45:08.969Z,65.60
2019-05-18T19:47:37.809Z,65.80
2019-05-18T19:50:07.672Z,66.82
2019-05-18T19:52:36.946Z,67.20
2019-05-18T19:55:07.186Z,70.03
2019-05-18T19:57:36.375Z,64.53
2019-05-18T20:00:07.578Z,67.30
2019-05-18T20:02:36.771Z,74.80
2019-05-18T20:05:09.774Z,70.10
2019-05-18T20:07:39.770Z,69.00
2019-05-18T20:10:10.016Z,67.95
2019-05-18T20:12:40.830Z,68.83
2019-05-18T20:15:10.146Z,71.35
2019-05-18T20:17:39.338Z,81.63
2019-05-18T20:20:09.482Z,113.92
2019-05-18T20:22:38.668Z,103.17
2019-05-18T20:25:08.167Z,98.62
2019-05-18T20:27:37.256Z,225.40
2019-05-18T20:30:08.089Z,79.32
2019-05-18T20:32:36.954Z,84.83
2019-05-18T20:35:05.837Z,77.82
2019-05-18T20:37:35.079Z,98.25
2019-05-18T20:40:05.176Z,92.50
2019-05-18T20:42:37.328Z,77.92
2019-05-18T20:45:05.664Z,76.62
2019-05-18T20:47:34.883Z,77.15
2019-05-18T20:50:05.888Z,80.83
2019-05-18T20:52:34.873Z,75.15
2019-05-18T20:55:04.195Z,98.45
2019-05-18T20:57:33.489Z,88.00
2019-05-18T21:00:02.562Z,83.72
2019-05-18T21:02:31.883Z,83.60
2019-05-18T21:05:01.325Z,71.35
2019-05-18T21:07:30.503Z,71.28
2019-05-18T21:09:59.718Z,106.85
2019-05-18T21:12:28.892Z,88.27
2019-05-18T21:14:58.109Z,90.55
2019-05-18T21:17:27.301Z,77.92
2019-05-18T21:19:56.600Z,86.97
2019-05-18T21:22:25.805Z,74.92
2019-05-18T21:24:55.004Z,83.47
2019-05-18T21:27:23.802Z,80.35
2019-05-18T21:29:52.886Z,87.70
2019-05-18T21:32:21.740Z,84.95
2019-05-18T21:34:50.518Z,90.92
2019-05-18T21:37:19.380Z,80.12
2019-05-18T21:39:48.653Z,108.57
2019-05-18T21:42:19.804Z,88.72
2019-05-18T21:44:48.610Z,89.55
2019-05-18T21:47:17.906Z,101.62
2019-05-18T21:49:47.200Z,118.60
2019-05-18T21:52:16.436Z,91.37
2019-05-18T21:54:45.287Z,100.18
2019-05-18T21:57:14.614Z,93.25
2019-05-18T21:59:43.805Z,103.25
2019-05-18T22:02:12.987Z,89.47
2019-05-18T22:04:42.187Z,82.75
2019-05-18T22:07:11.384Z,83.75
2019-05-18T22:09:40.587Z,94.90
2019-05-18T22:12:09.454Z,89.70
2019-05-18T22:14:38.581Z,103.42
2019-05-18T22:17:07.771Z,97.62
2019-05-18T22:19:36.971Z,88.05
2019-05-18T22:22:05.741Z,87.70
2019-05-18T22:24:34.959Z,91.28
2019-05-18T22:27:03.801Z,86.15
2019-05-18T22:29:34.395Z,85.38
2019-05-18T22:32:03.593Z,86.02
2019-05-18T22:34:32.692Z,88.82
2019-05-18T22:37:03.326Z,80.42
2019-05-18T22:39:32.523Z,90.83
2019-05-18T22:42:01.615Z,97.97
2019-05-18T22:44:30.817Z,88.10
2019-05-18T22:46:59.909Z,91.00
2019-05-18T22:49:29.113Z,85.90
2019-05-18T22:51:57.952Z,90.47
2019-05-18T22:54:27.096Z,91.78
2019-05-18T22:56:55.904Z,94.72
2019-05-18T22:59:24.751Z,117.82
2019-05-18T23:01:53.635Z,95.50
2019-05-18T23:04:22.753Z,91.85
2019-05-18T23:06:51.969Z,92.75
2019-05-18T23:09:21.223Z,92.00
2019-05-18T23:11:50.371Z,88.72
2019-05-18T23:14:19.676Z,93.42
2019-05-18T23:16:48.868Z,94.80
2019-05-18T23:19:17.989Z,109.72
2019-05-18T23:21:47.170Z,94.45
2019-05-18T23:24:15.995Z,90.15
2019-05-18T23:26:44.849Z,91.50
2019-05-18T23:29:13.964Z,96.35
2019-05-18T23:31:43.324Z,113.92
2019-05-18T23:34:12.147Z,96.32
2019-05-18T23:36:41.544Z,100.55
2019-05-18T23:39:10.555Z,93.78
2019-05-18T23:41:39.644Z,94.75
2019-05-18T23:44:11.769Z,93.92
2019-05-18T23:46:41.330Z,92.88
2019-05-18T23:49:11.290Z,96.90
2019-05-18T23:51:40.812Z,90.50
2019-05-18T23:54:10.156Z,101.35
2019-05-18T23:56:39.343Z,95.53
2019-05-18T23:59:08.071Z,93.87
